createdAt,value
2022-12-20T00:02:50.159Z,12.07
2022-12-20T00:05:51.754Z,11.80
2022-12-20T00:08:54.528Z,17.75
2022-12-20T00:14:57.448Z,12.95
2022-12-20T00:17:59.549Z,18.13
2022-12-20T00:21:01.513Z,17.38
2022-12-20T00:24:03.187Z,16.63
2022-12-20T00:27:04.734Z,11.00
2022-12-20T00:30:07.169Z,14.15
2022-12-20T00:33:08.707Z,10.35
2022-12-20T00:36:10.289Z,12.07
2022-12-20T00:39:11.882Z,15.43
2022-12-20T00:42:13.375Z,18.80
2022-12-20T00:45:14.976Z,16.75
2022-12-20T00:48:16.492Z,12.20
2022-12-20T00:51:20.066Z,12.77
2022-12-20T00:54:21.645Z,9.65
2022-12-20T00:57:23.184Z,18.70
2022-12-20T01:00:24.705Z,22.27
2022-12-20T01:03:26.481Z,10.02
2022-12-20T01:06:28.277Z,14.88
2022-12-20T01:09:29.873Z,13.70
2022-12-20T01:12:31.396Z,6.18
2022-12-20T01:15:33.648Z,9.07
2022-12-20T01:18:35.196Z,7.40
2022-12-20T01:21:36.969Z,13.65
2022-12-20T01:24:38.499Z,16.17
2022-12-20T01:27:40.110Z,13.52
2022-12-20T01:30:42.133Z,30.55
2022-12-20T01:33:43.906Z,68.82
2022-12-20T01:36:45.438Z,77.17
2022-12-20T01:39:46.959Z,46.50
2022-12-20T01:42:48.509Z,72.90
2022-12-20T01:45:50.635Z,176.23
2022-12-20T01:49:14.487Z,177.02
2022-12-20T01:52:20.817Z,128.73
2022-12-20T01:55:23.897Z,74.38
2022-12-20T01:58:25.443Z,67.93
2022-12-20T02:01:27.090Z,64.13
2022-12-20T02:04:28.714Z,46.45
2022-12-20T02:07:31.224Z,38.53
2022-12-20T02:10:42.318Z,39.30
2022-12-20T02:14:17.972Z,32.53
2022-12-20T02:17:34.630Z,45.85
2022-12-20T02:20:39.118Z,33.72
2022-12-20T02:23:49.727Z,26.50
2022-12-20T02:27:09.673Z,27.63
2022-12-20T02:30:15.887Z,24.33
2022-12-20T02:33:17.390Z,28.33
2022-12-20T02:36:18.956Z,24.48
2022-12-20T02:39:20.654Z,29.45
2022-12-20T02:42:23.645Z,216.95
2022-12-20T02:45:31.315Z,251.07
2022-12-20T02:48:33.693Z,264.23
2022-12-20T02:51:35.482Z,186.63
2022-12-20T02:54:37.588Z,120.70
2022-12-20T02:58:03.194Z,161.00
2022-12-20T03:01:10.462Z,228.88
2022-12-20T03:04:14.917Z,242.88
2022-12-20T03:07:16.900Z,191.38
2022-12-20T03:10:18.735Z,64.13
2022-12-20T03:13:21.313Z,112.85
2022-12-20T03:19:24.823Z,55.20
2022-12-20T03:22:27.260Z,51.97
2022-12-20T03:25:29.085Z,59.83
2022-12-20T03:28:30.754Z,58.60
2022-12-20T03:31:32.716Z,36.33
2022-12-20T03:34:34.489Z,178.05
2022-12-20T03:37:36.464Z,150.13
2022-12-20T03:40:38.183Z,306.27
2022-12-20T03:43:39.904Z,163.77
2022-12-20T03:46:41.643Z,29.80
2022-12-20T03:49:43.398Z,92.23
2022-12-20T03:52:45.182Z,72.47
2022-12-20T03:55:46.942Z,90.17
2022-12-20T03:58:48.706Z,63.23
2022-12-20T04:01:50.574Z,60.33
2022-12-20T04:04:52.499Z,72.25
2022-12-20T04:07:54.200Z,57.60
2022-12-20T04:11:14.649Z,43.10
2022-12-20T04:14:18.078Z,52.13
2022-12-20T04:17:19.863Z,38.42
2022-12-20T04:20:21.809Z,37.40
2022-12-20T04:23:23.649Z,21.58
2022-12-20T04:26:25.435Z,13.07
2022-12-20T04:29:27.221Z,13.33
2022-12-20T04:32:28.824Z,23.07
2022-12-20T04:35:30.595Z,21.83
2022-12-20T04:38:32.379Z,20.93
2022-12-20T04:41:34.057Z,15.70
2022-12-20T04:44:35.807Z,15.20
2022-12-20T04:47:38.640Z,15.57
2022-12-20T04:50:40.359Z,14.40
2022-12-20T04:53:48.212Z,13.30
2022-12-20T04:56:49.991Z,21.48
2022-12-20T04:59:51.762Z,19.70
2022-12-20T05:02:53.552Z,20.77
2022-12-20T05:05:55.357Z,17.92
2022-12-20T05:08:57.061Z,32.47
2022-12-20T05:11:58.729Z,27.25
2022-12-20T05:15:00.438Z,23.90
2022-12-20T05:18:02.048Z,28.13
2022-12-20T05:21:22.454Z,40.50
2022-12-20T05:24:42.824Z,23.38
2022-12-20T05:27:44.461Z,39.40
2022-12-20T05:30:46.255Z,36.75
2022-12-20T05:33:47.914Z,35.70
2022-12-20T05:36:49.582Z,43.88
2022-12-20T05:39:51.316Z,27.08
2022-12-20T05:42:52.975Z,33.53
2022-12-20T05:45:55.322Z,36.72
2022-12-20T05:48:57.018Z,48.80
2022-12-20T05:51:58.798Z,41.50
2022-12-20T05:55:00.692Z,49.63
2022-12-20T05:58:02.395Z,36.42
2022-12-20T06:01:06.379Z,41.03
2022-12-20T06:04:08.214Z,29.23
2022-12-20T06:07:09.943Z,31.17
2022-12-20T06:10:14.865Z,23.98
2022-12-20T06:13:54.884Z,31.58
2022-12-20T06:16:56.627Z,36.17
2022-12-20T06:19:58.415Z,34.73
2022-12-20T06:23:00.234Z,32.43
2022-12-20T06:26:09.407Z,27.63
2022-12-20T06:29:14.250Z,37.90
2022-12-20T06:32:15.890Z,42.78
2022-12-20T06:35:17.580Z,46.30
2022-12-20T06:38:19.215Z,32.85
2022-12-20T06:41:20.887Z,46.17
2022-12-20T06:44:22.588Z,40.72
2022-12-20T06:47:24.339Z,39.53
2022-12-20T06:50:29.118Z,32.23
2022-12-20T06:53:30.826Z,30.08
2022-12-20T06:56:36.190Z,30.15
2022-12-20T06:59:42.731Z,26.48
2022-12-20T07:02:45.568Z,23.20
2022-12-20T07:05:52.450Z,24.70
2022-12-20T07:08:54.136Z,25.27
2022-12-20T07:11:58.342Z,14.82
2022-12-20T07:15:01.156Z,32.38
2022-12-20T07:18:03.282Z,29.67
2022-12-20T07:21:05.562Z,46.17
2022-12-20T07:24:07.617Z,68.20
2022-12-20T07:27:10.894Z,137.88
2022-12-20T07:30:12.863Z,177.07
2022-12-20T07:33:14.550Z,247.50
2022-12-20T07:36:20.494Z,205.40
2022-12-20T07:39:22.165Z,140.23
2022-12-20T07:42:26.368Z,64.05
2022-12-20T07:45:34.195Z,84.07
2022-12-20T07:48:36.237Z,43.35
2022-12-20T07:51:41.278Z,45.03
2022-12-20T07:54:46.025Z,35.28
2022-12-20T07:57:53.433Z,37.40
2022-12-20T08:00:55.214Z,12.40
2022-12-20T08:04:00.723Z,8.93
2022-12-20T08:07:02.513Z,19.63
2022-12-20T08:10:05.829Z,23.30
2022-12-20T08:13:07.510Z,25.30
2022-12-20T08:16:09.299Z,26.70
2022-12-20T08:19:11.255Z,25.08
2022-12-20T08:22:12.910Z,21.30
2022-12-20T08:25:14.663Z,17.50
2022-12-20T08:28:16.346Z,20.23
2022-12-20T08:31:18.097Z,20.77
2022-12-20T08:34:19.808Z,24.92
2022-12-20T08:37:24.122Z,24.87
2022-12-20T08:40:25.899Z,19.05
2022-12-20T08:43:27.546Z,11.50
2022-12-20T08:46:29.404Z,18.85
2022-12-20T08:49:31.114Z,18.77
2022-12-20T08:52:32.742Z,34.47
2022-12-20T08:55:37.495Z,32.87
2022-12-20T08:58:39.369Z,19.67
2022-12-20T09:01:41.266Z,106.50
2022-12-20T09:04:44.596Z,55.35
2022-12-20T09:07:46.498Z,35.35
2022-12-20T09:10:48.243Z,32.22
2022-12-20T09:13:51.468Z,25.93
2022-12-20T09:16:53.227Z,25.38
2022-12-20T09:19:55.316Z,27.57
2022-12-20T09:22:58.699Z,32.47
2022-12-20T09:26:08.080Z,30.70
2022-12-20T09:29:09.729Z,36.97
2022-12-20T09:32:11.687Z,28.77
2022-12-20T09:35:17.827Z,22.08
2022-12-20T09:38:22.830Z,24.92
2022-12-20T09:41:27.595Z,22.47
2022-12-20T09:44:31.285Z,15.88
2022-12-20T09:47:33.817Z,20.38
2022-12-20T09:54:29.282Z,18.65
2022-12-20T09:58:01.796Z,21.52
2022-12-20T10:01:21.466Z,20.38
2022-12-20T10:04:28.735Z,31.80
2022-12-20T10:07:44.479Z,25.55
2022-12-20T10:10:59.746Z,29.27
2022-12-20T10:14:24.539Z,30.25
2022-12-20T10:17:56.160Z,30.05
2022-12-20T10:21:11.344Z,28.42
2022-12-20T10:24:20.846Z,26.48
2022-12-20T10:27:22.543Z,58.55
2022-12-20T10:30:25.369Z,50.80
2022-12-20T10:33:27.065Z,38.58
2022-12-20T10:36:30.375Z,38.30
2022-12-20T10:39:42.857Z,36.42
2022-12-20T10:42:44.593Z,33.45
2022-12-20T10:45:55.801Z,38.30
2022-12-20T10:48:57.476Z,30.95
2022-12-20T10:52:22.353Z,39.40
2022-12-20T10:55:41.240Z,25.00
2022-12-20T10:58:43.037Z,23.42
2022-12-20T11:01:46.129Z,35.38
2022-12-20T11:05:04.124Z,51.10
2022-12-20T11:08:35.339Z,55.13
2022-12-20T11:11:42.309Z,39.08
2022-12-20T11:14:47.726Z,14.80
2022-12-20T11:17:51.731Z,9.65
2022-12-20T11:21:01.204Z,11.05
2022-12-20T11:24:14.605Z,15.02
2022-12-20T11:27:36.575Z,18.15
2022-12-20T11:31:09.236Z,11.68
2022-12-20T11:34:35.603Z,9.95
2022-12-20T11:38:09.156Z,12.90
2022-12-20T11:41:52.489Z,32.67
2022-12-20T11:45:06.658Z,18.55
2022-12-20T11:48:35.726Z,23.52
2022-12-20T11:51:51.206Z,19.08
2022-12-20T11:55:07.410Z,19.85
2022-12-20T11:58:33.101Z,18.15
2022-12-20T12:01:41.200Z,26.92
2022-12-20T12:04:50.980Z,17.60
2022-12-20T12:07:58.287Z,17.25
2022-12-20T12:11:39.993Z,18.77
2022-12-20T12:14:45.931Z,19.00
2022-12-20T12:17:55.602Z,13.68
2022-12-20T12:21:09.957Z,16.02
2022-12-20T12:24:30.433Z,17.38
2022-12-20T12:27:32.116Z,19.10
2022-12-20T12:30:38.162Z,19.02
2022-12-20T12:33:48.585Z,22.83
2022-12-20T12:37:12.132Z,14.93
2022-12-20T12:40:22.112Z,28.15
2022-12-20T12:43:46.311Z,28.45
2022-12-20T12:46:54.175Z,19.85
2022-12-20T12:49:55.969Z,17.20
2022-12-20T12:52:59.198Z,16.52
2022-12-20T12:56:19.328Z,12.80
2022-12-20T12:59:47.424Z,13.80
2022-12-20T13:02:50.949Z,8.32
2022-12-20T13:05:52.920Z,17.83
2022-12-20T13:09:07.674Z,32.15
2022-12-20T13:12:37.145Z,13.02
2022-12-20T13:15:41.591Z,12.27
2022-12-20T13:18:56.761Z,22.02
2022-12-20T13:22:19.039Z,21.75
2022-12-20T13:25:30.654Z,16.08
2022-12-20T13:28:32.338Z,14.00
2022-12-20T13:31:34.198Z,24.00
2022-12-20T13:34:37.915Z,10.73
2022-12-20T13:38:04.628Z,8.05
2022-12-20T13:41:43.939Z,11.45
2022-12-20T13:44:46.640Z,11.77
2022-12-20T13:47:54.291Z,18.35
2022-12-20T13:50:56.404Z,16.40
2022-12-20T13:54:01.527Z,13.85
2022-12-20T13:57:03.034Z,13.63
2022-12-20T14:00:07.437Z,9.87
2022-12-20T14:03:35.938Z,16.65
2022-12-20T14:06:37.808Z,20.60
2022-12-20T14:09:39.427Z,21.27
2022-12-20T14:12:42.377Z,27.40
2022-12-20T14:15:43.908Z,19.42
2022-12-20T14:19:00.916Z,23.03
2022-12-20T14:22:02.491Z,18.73
2022-12-20T14:25:05.582Z,23.53
2022-12-20T14:28:23.069Z,17.75
2022-12-20T14:31:32.277Z,36.58
2022-12-20T14:34:41.296Z,23.77
2022-12-20T14:37:52.059Z,23.73
2022-12-20T14:40:54.503Z,29.88
2022-12-20T14:43:56.791Z,21.13
2022-12-20T14:47:05.083Z,28.05
2022-12-20T14:50:22.543Z,25.80
2022-12-20T14:53:30.483Z,24.08
2022-12-20T14:56:33.805Z,29.17
2022-12-20T14:59:35.447Z,20.15
2022-12-20T15:02:52.520Z,14.33
2022-12-20T15:05:56.027Z,27.85
2022-12-20T15:08:57.616Z,20.33
2022-12-20T15:11:59.258Z,23.07
2022-12-20T15:15:24.111Z,22.02
2022-12-20T15:18:22.612Z,25.10
2022-12-20T15:21:37.435Z,19.92
2022-12-20T15:24:39.795Z,27.75
2022-12-20T15:27:41.373Z,27.02
2022-12-20T15:30:42.943Z,32.03
2022-12-20T15:33:44.555Z,34.77
2022-12-20T15:36:46.681Z,39.10
2022-12-20T15:39:48.213Z,39.47
2022-12-20T15:42:49.837Z,36.17
2022-12-20T15:45:52.653Z,32.97
2022-12-20T15:48:54.207Z,40.15
2022-12-20T15:51:55.854Z,42.78
2022-12-20T15:54:57.414Z,37.93
2022-12-20T15:57:58.963Z,30.50
2022-12-20T16:01:00.875Z,33.97
2022-12-20T16:04:03.001Z,27.23
2022-12-20T16:07:12.084Z,29.98
2022-12-20T16:10:15.372Z,36.10
2022-12-20T16:13:21.688Z,37.45
2022-12-20T16:16:28.489Z,40.03
2022-12-20T16:19:30.064Z,32.08
2022-12-20T16:22:31.691Z,27.55
2022-12-20T16:25:35.924Z,26.07
2022-12-20T16:28:37.520Z,30.05
2022-12-20T16:31:39.967Z,22.90
2022-12-20T16:37:42.936Z,28.58
2022-12-20T16:40:45.752Z,35.72
2022-12-20T16:43:47.664Z,26.60
2022-12-20T16:46:49.324Z,9.40
2022-12-20T16:49:53.155Z,22.93
2022-12-20T16:52:55.321Z,21.58
2022-12-20T16:55:59.778Z,7.32
2022-12-20T16:59:19.125Z,10.80
2022-12-20T17:02:21.987Z,10.32
2022-12-20T17:05:31.779Z,10.57
2022-12-20T17:11:52.348Z,11.00
2022-12-20T17:14:53.995Z,11.07
2022-12-20T17:17:55.715Z,8.95
2022-12-20T17:20:57.321Z,11.68
2022-12-20T17:23:59.020Z,7.33
2022-12-20T17:27:00.849Z,8.20
2022-12-20T17:30:02.433Z,11.82
2022-12-20T17:33:04.084Z,11.33
2022-12-20T17:36:05.911Z,10.73
2022-12-20T17:39:07.662Z,10.95
2022-12-20T17:42:15.700Z,12.52
2022-12-20T17:45:28.333Z,7.13
2022-12-20T17:48:33.897Z,7.80
2022-12-20T17:51:37.318Z,8.73
2022-12-20T17:54:40.260Z,9.77
2022-12-20T17:57:42.175Z,22.42
2022-12-20T18:00:43.907Z,52.63
2022-12-20T18:07:07.199Z,139.57
2022-12-20T18:10:09.373Z,56.53
2022-12-20T18:13:11.036Z,96.50
2022-12-20T18:16:16.800Z,66.82
2022-12-20T18:19:18.696Z,46.53
2022-12-20T18:22:20.332Z,109.05
2022-12-20T18:25:21.991Z,37.00
2022-12-20T18:28:23.666Z,44.33
2022-12-20T18:31:26.687Z,70.25
2022-12-20T18:34:28.398Z,41.55
2022-12-20T18:37:30.105Z,28.33
2022-12-20T18:40:31.760Z,25.77
2022-12-20T18:43:34.055Z,20.03
2022-12-20T18:46:35.751Z,13.68
2022-12-20T18:49:37.645Z,10.75
2022-12-20T18:52:41.372Z,8.63
2022-12-20T18:55:44.841Z,14.85
2022-12-20T18:58:47.536Z,15.70
2022-12-20T19:01:49.353Z,26.40
2022-12-20T19:04:51.137Z,25.15
2022-12-20T19:07:53.248Z,26.73
2022-12-20T19:10:58.322Z,33.72
2022-12-20T19:13:59.984Z,42.55
2022-12-20T19:17:01.810Z,34.20
2022-12-20T19:20:05.323Z,28.98
2022-12-20T19:23:07.064Z,26.23
2022-12-20T19:26:13.730Z,24.42
2022-12-20T19:29:15.460Z,27.42
2022-12-20T19:32:17.143Z,24.55
2022-12-20T19:35:53.644Z,31.30
2022-12-20T19:38:44.432Z,24.30
2022-12-20T19:42:05.983Z,23.13
2022-12-20T19:45:07.911Z,27.08
2022-12-20T19:48:10.429Z,14.80
2022-12-20T19:54:13.980Z,30.30
2022-12-20T19:57:16.094Z,33.33
2022-12-20T20:00:17.886Z,18.15
2022-12-20T20:03:19.859Z,17.90
2022-12-20T20:06:21.709Z,19.50
2022-12-20T20:09:23.525Z,13.63
2022-12-20T20:12:25.178Z,13.07
2022-12-20T20:15:26.868Z,17.67
2022-12-20T20:18:28.742Z,26.50
2022-12-20T20:21:30.339Z,33.95
2022-12-20T20:24:32.095Z,34.33
2022-12-20T20:27:33.702Z,29.25
2022-12-20T20:30:35.273Z,52.30
2022-12-20T20:33:37.550Z,43.83
2022-12-20T20:36:39.431Z,61.83
2022-12-20T20:39:41.461Z,56.78
2022-12-20T20:42:43.320Z,59.88
2022-12-20T20:45:44.977Z,57.90
2022-12-20T20:48:46.706Z,50.17
2022-12-20T20:51:48.358Z,43.00
2022-12-20T20:54:49.962Z,58.60
2022-12-20T20:57:51.599Z,49.47
2022-12-20T21:00:56.909Z,57.57
2022-12-20T21:03:59.067Z,51.65
2022-12-20T21:07:00.780Z,51.70
2022-12-20T21:10:03.061Z,51.53
2022-12-20T21:13:04.971Z,45.42
2022-12-20T21:16:10.871Z,62.25
2022-12-20T21:19:12.659Z,56.22
2022-12-20T21:22:14.298Z,45.97
2022-12-20T21:25:15.930Z,60.13
2022-12-20T21:28:21.304Z,56.70
2022-12-20T21:31:23.165Z,73.00
2022-12-20T21:34:24.701Z,55.63
2022-12-20T21:37:26.628Z,65.78
2022-12-20T21:40:28.455Z,50.97
2022-12-20T21:43:30.073Z,56.67
2022-12-20T21:46:32.181Z,62.00
2022-12-20T21:49:33.945Z,44.90
2022-12-20T21:52:35.572Z,53.13
2022-12-20T21:55:37.115Z,54.30
2022-12-20T21:58:38.718Z,44.45
2022-12-20T22:01:40.411Z,15.10
2022-12-20T22:04:42.056Z,18.45
2022-12-20T22:07:46.322Z,14.40
2022-12-20T22:10:49.886Z,17.52
2022-12-20T22:13:55.723Z,20.27
2022-12-20T22:16:57.334Z,14.35
2022-12-20T22:19:58.878Z,22.60
2022-12-20T22:23:00.614Z,19.38
2022-12-20T22:26:06.451Z,20.38
2022-12-20T22:29:08.082Z,23.33
2022-12-20T22:32:10.428Z,30.57
2022-12-20T22:38:13.460Z,28.95
2022-12-20T22:41:16.833Z,23.23
2022-12-20T22:44:18.366Z,20.40
2022-12-20T22:47:20.040Z,33.60
2022-12-20T22:50:21.577Z,60.07
2022-12-20T22:53:23.113Z,47.65
2022-12-20T22:56:24.612Z,39.80
2022-12-20T22:59:26.294Z,32.27
2022-12-20T23:02:28.042Z,40.95
2022-12-20T23:05:29.731Z,23.85
2022-12-20T23:08:32.629Z,10.00
2022-12-20T23:11:52.716Z,7.93
2022-12-20T23:15:26.573Z,9.23
2022-12-20T23:18:28.074Z,7.18
2022-12-20T23:21:48.180Z,7.05
2022-12-20T23:24:49.671Z,9.10
2022-12-20T23:27:51.486Z,13.83
2022-12-20T23:30:53.149Z,8.45
2022-12-20T23:33:54.679Z,16.60
2022-12-20T23:36:56.218Z,5.97
2022-12-20T23:39:57.744Z,16.20
2022-12-20T23:42:59.297Z,26.07
2022-12-20T23:46:05.043Z,4.73
2022-12-20T23:49:06.690Z,10.32
2022-12-20T23:52:08.236Z,9.50
2022-12-20T23:55:09.891Z,12.18
2022-12-20T23:58:11.487Z,10.63
